createdAt,value
2022-10-21T00:01:05.003Z,98973.91
2022-10-21T00:03:37.780Z,98975.59
2022-10-21T00:06:06.429Z,98982.13
2022-10-21T00:08:34.614Z,98981.28
2022-10-21T00:11:04.123Z,98988.28
2022-10-21T00:13:34.551Z,98991.94
2022-10-21T00:16:05.468Z,98990.28
2022-10-21T00:18:35.646Z,98991.94
2022-10-21T00:21:08.352Z,98980.44
2022-10-21T00:23:36.456Z,98977.97
2022-10-21T00:26:04.520Z,98981.66
2022-10-21T00:28:33.046Z,98976.34
2022-10-21T00:31:00.603Z,98977.34
2022-10-21T00:33:28.951Z,98983.69
2022-10-21T00:36:02.703Z,98982.06
2022-10-21T00:38:31.930Z,98985.72
2022-10-21T00:40:59.920Z,98980.38
2022-10-21T00:43:28.408Z,98977.09
2022-10-21T00:45:59.630Z,98987.75
2022-10-21T00:48:40.950Z,98978.28
2022-10-21T00:51:14.086Z,98981.78
2022-10-21T00:53:46.021Z,98980.94
2022-10-21T00:56:18.406Z,98977.47
2022-10-21T00:58:48.263Z,98971.50
2022-10-21T01:01:19.161Z,98984.00
2022-10-21T01:03:50.788Z,98976.19
2022-10-21T01:06:21.842Z,98981.53
2022-10-21T01:08:50.867Z,98975.38
2022-10-21T01:11:19.750Z,98969.19
2022-10-21T01:13:50.287Z,98966.75
2022-10-21T01:16:33.315Z,98962.22
2022-10-21T01:19:01.065Z,98965.88
2022-10-21T01:21:38.395Z,98965.06
2022-10-21T01:24:26.298Z,98958.09
2022-10-21T01:27:17.036Z,98958.91
2022-10-21T01:30:09.158Z,98947.63
2022-10-21T01:32:48.935Z,98936.97
2022-10-21T01:35:47.962Z,98943.31
2022-10-21T01:38:30.275Z,98941.66
2022-10-21T01:41:15.154Z,98928.34
2022-10-21T01:44:03.954Z,98924.03
2022-10-21T01:46:40.710Z,98914.38
2022-10-21T01:49:15.800Z,98910.88
2022-10-21T01:51:44.633Z,98905.56
2022-10-21T01:54:28.082Z,98914.53
2022-10-21T01:56:58.384Z,98907.59
2022-10-21T01:59:30.120Z,98908.41
2022-10-21T02:02:04.775Z,98900.41
2022-10-21T02:04:34.793Z,98900.41
2022-10-21T02:07:03.057Z,98905.75
2022-10-21T02:12:03.210Z,98913.72
2022-10-21T02:14:33.062Z,98923.41
2022-10-21T02:17:01.051Z,98913.72
2022-10-21T02:19:28.913Z,98905.75
2022-10-21T02:22:00.313Z,98908.41
2022-10-21T02:24:38.442Z,98908.41
2022-10-21T02:27:06.299Z,98897.75
2022-10-21T02:29:38.346Z,98901.44
2022-10-21T02:32:15.823Z,98907.59
2022-10-21T02:35:29.562Z,98902.44
2022-10-21T02:38:21.136Z,98883.78
2022-10-21T02:40:56.192Z,98901.44
2022-10-21T02:43:34.164Z,98906.13
2022-10-21T02:46:10.761Z,98906.13
2022-10-21T02:48:40.561Z,98891.97
2022-10-21T02:51:08.371Z,98891.97
2022-10-21T02:53:36.767Z,98886.63
2022-10-21T02:56:05.302Z,98876.81
2022-10-21T02:58:34.218Z,98873.47
2022-10-21T03:01:01.990Z,98874.47
2022-10-21T03:03:29.996Z,98876.16
2022-10-21T03:05:57.950Z,98870.81
2022-10-21T03:08:25.783Z,98868.34
2022-10-21T03:10:53.794Z,98878.00
2022-10-21T03:13:23.136Z,98887.81
2022-10-21T03:15:51.419Z,98875.50
2022-10-21T03:18:19.505Z,98858.72
2022-10-21T03:20:51.039Z,98854.19
2022-10-21T03:23:19.638Z,98852.53
2022-10-21T03:25:47.678Z,98849.88
2022-10-21T03:28:15.383Z,98840.25
2022-10-21T03:30:42.979Z,98850.91
2022-10-21T03:33:10.658Z,98854.59
2022-10-21T03:35:38.308Z,98849.25
2022-10-21T03:38:06.038Z,98843.94
2022-10-21T03:40:33.576Z,98838.59
2022-10-21T03:43:01.257Z,98842.28
2022-10-21T03:45:28.680Z,98840.63
2022-10-21T03:47:56.773Z,98840.63
2022-10-21T03:50:26.560Z,98839.78
2022-10-21T03:52:55.122Z,98844.28
2022-10-21T03:55:24.968Z,98838.97
2022-10-21T03:57:53.767Z,98838.97
2022-10-21T04:00:21.779Z,98830.97
2022-10-21T04:02:49.816Z,98834.66
2022-10-21T04:05:17.891Z,98834.66
2022-10-21T04:07:49.356Z,98832.00
2022-10-21T04:10:21.222Z,98827.69
2022-10-21T04:12:49.588Z,98825.00
2022-10-21T04:15:17.598Z,98826.69
2022-10-21T04:17:46.854Z,98826.03
2022-10-21T04:20:14.437Z,98824.38
2022-10-21T04:22:42.152Z,98818.06
2022-10-21T04:25:09.690Z,98819.03
2022-10-21T04:27:38.187Z,98820.91
2022-10-21T04:30:07.196Z,98830.72
2022-10-21T04:32:35.087Z,98820.06
2022-10-21T04:35:03.528Z,98830.72
2022-10-21T04:37:31.344Z,98822.75
2022-10-21T04:39:58.784Z,98813.09
2022-10-21T04:44:59.269Z,98817.59
2022-10-21T04:47:26.947Z,98815.97
2022-10-21T04:49:54.462Z,98811.44
2022-10-21T04:52:22.134Z,98814.13
2022-10-21T04:54:49.575Z,98807.13
2022-10-21T04:57:17.385Z,98806.13
2022-10-21T04:59:44.871Z,98808.78
2022-10-21T05:02:13.708Z,98807.13
2022-10-21T05:04:41.224Z,98804.47
2022-10-21T05:07:09.438Z,98813.28
2022-10-21T05:09:37.009Z,98809.78
2022-10-21T05:12:04.802Z,98800.16
2022-10-21T05:14:32.306Z,98802.81
2022-10-21T05:17:00.277Z,98805.31
2022-10-21T05:19:31.138Z,98808.16
2022-10-21T05:21:59.393Z,98808.97
2022-10-21T05:24:27.058Z,98812.44
2022-10-21T05:26:55.554Z,98809.78
2022-10-21T05:29:23.053Z,98814.28
2022-10-21T05:31:50.711Z,98807.97
2022-10-21T05:34:18.315Z,98803.63
2022-10-21T05:36:48.897Z,98799.13
2022-10-21T05:39:16.407Z,98777.00
2022-10-21T05:41:47.032Z,98770.03
2022-10-21T05:44:16.945Z,98780.69
2022-10-21T05:46:44.793Z,98817.13
2022-10-21T05:49:13.108Z,98820.81
2022-10-21T05:51:40.964Z,98802.19
2022-10-21T05:54:08.455Z,98811.81
2022-10-21T05:56:36.147Z,98826.16
2022-10-21T05:59:06.616Z,98833.13
2022-10-21T06:01:37.264Z,98820.81
2022-10-21T06:04:05.779Z,98826.16
2022-10-21T06:06:33.582Z,98825.34
2022-10-21T06:09:02.388Z,98824.50
2022-10-21T06:11:30.155Z,98827.16
2022-10-21T06:13:57.780Z,98831.66
2022-10-21T06:16:25.973Z,98837.81
2022-10-21T06:18:53.486Z,98825.53
2022-10-21T06:21:21.385Z,98828.19
2022-10-21T06:23:52.450Z,98818.56
2022-10-21T06:26:20.696Z,98821.22
2022-10-21T06:28:48.259Z,98819.56
2022-10-21T06:31:19.163Z,98825.69
2022-10-21T06:33:46.582Z,98833.50
2022-10-21T06:36:14.486Z,98840.88
2022-10-21T06:38:44.277Z,98841.69
2022-10-21T06:41:14.800Z,98846.19
2022-10-21T06:43:42.848Z,98842.53
2022-10-21T06:46:13.159Z,98842.53
2022-10-21T06:48:41.542Z,98840.88
2022-10-21T06:51:16.400Z,98835.53
2022-10-21T06:53:44.657Z,98834.53
2022-10-21T06:56:16.528Z,98817.53
2022-10-21T06:58:49.033Z,98819.16
2022-10-21T07:01:35.001Z,98815.50
2022-10-21T07:04:10.196Z,98811.16
2022-10-21T07:06:38.340Z,98811.00
2022-10-21T07:09:08.080Z,98806.47
2022-10-21T07:11:35.977Z,98799.13
2022-10-21T07:14:03.802Z,98801.63
2022-10-21T07:16:33.884Z,98797.09
2022-10-21T07:19:01.517Z,98809.22
2022-10-21T07:21:31.407Z,98799.59
2022-10-21T07:24:00.631Z,98791.41
2022-10-21T07:26:30.482Z,98793.03
2022-10-21T07:28:59.890Z,98789.38
2022-10-21T07:31:31.583Z,98780.38
2022-10-21T07:34:01.158Z,98773.41
2022-10-21T07:36:32.714Z,98763.38
2022-10-21T07:39:04.489Z,98757.41
2022-10-21T07:41:38.898Z,98763.56
2022-10-21T07:44:07.506Z,98756.56
2022-10-21T07:46:36.985Z,98761.25
2022-10-21T07:49:04.887Z,98752.09
2022-10-21T07:51:32.716Z,98754.13
2022-10-21T07:54:01.812Z,98759.44
2022-10-21T07:56:50.786Z,98748.78
2022-10-21T07:59:20.265Z,98744.28
2022-10-21T08:04:18.390Z,98748.78
2022-10-21T08:06:48.149Z,98734.44
2022-10-21T08:09:16.938Z,98725.81
2022-10-21T08:11:44.736Z,98729.13
2022-10-21T08:14:12.381Z,98719.50
2022-10-21T08:16:40.551Z,98713.13
2022-10-21T08:19:09.269Z,98707.00
2022-10-21T08:21:37.712Z,98707.00
2022-10-21T08:24:05.617Z,98705.31
2022-10-21T08:26:33.604Z,98700.84
2022-10-21T08:29:03.622Z,98692.84
2022-10-21T08:31:31.410Z,98692.84
2022-10-21T08:33:59.377Z,98695.53
2022-10-21T08:36:27.256Z,98687.53
2022-10-21T08:38:55.224Z,98680.34
2022-10-21T08:41:28.909Z,98680.34
2022-10-21T08:44:05.865Z,98677.69
2022-10-21T08:46:37.794Z,98670.50
2022-10-21T08:49:07.725Z,98673.81
2022-10-21T08:51:41.774Z,98675.84
2022-10-21T08:54:19.284Z,98666.00
2022-10-21T08:56:50.429Z,98657.81
2022-10-21T08:59:23.969Z,98648.84
2022-10-21T09:01:59.888Z,98659.50
2022-10-21T09:04:36.450Z,98647.19
2022-10-21T09:07:15.319Z,98651.50
2022-10-21T09:09:53.863Z,98647.19
2022-10-21T09:13:02.676Z,98644.50
2022-10-21T09:15:49.659Z,98641.84
2022-10-21T09:18:35.296Z,98641.84
2022-10-21T09:21:08.795Z,98635.69
2022-10-21T09:23:58.029Z,98630.38
2022-10-21T09:26:43.018Z,98633.22
2022-10-21T09:29:29.724Z,98627.91
2022-10-21T09:32:10.740Z,98629.56
2022-10-21T09:34:45.508Z,98617.25
2022-10-21T09:37:22.389Z,98617.25
2022-10-21T09:39:59.104Z,98617.25
2022-10-21T09:42:46.398Z,98610.28
2022-10-21T09:45:36.468Z,98610.28
2022-10-21T09:48:06.243Z,98603.09
2022-10-21T09:50:35.059Z,98592.47
2022-10-21T09:53:28.984Z,98592.47
2022-10-21T09:56:03.840Z,98599.63
2022-10-21T09:58:37.514Z,98579.94
2022-10-21T10:01:06.537Z,98582.63
2022-10-21T10:03:36.889Z,98578.31
2022-10-21T10:06:05.896Z,98582.63
2022-10-21T10:08:44.228Z,98579.94
2022-10-21T10:11:18.745Z,98580.78
2022-10-21T10:13:49.215Z,98578.31
2022-10-21T10:16:22.728Z,98569.28
2022-10-21T10:18:53.215Z,98573.81
2022-10-21T10:21:22.460Z,98579.94
2022-10-21T10:23:49.881Z,98574.63
2022-10-21T10:26:30.307Z,98569.28
2022-10-21T10:29:10.596Z,98566.63
2022-10-21T10:31:39.028Z,98564.78
2022-10-21T10:34:09.027Z,98565.63
2022-10-21T10:36:39.663Z,98570.97
2022-10-21T10:39:16.892Z,98554.97
2022-10-21T10:41:50.128Z,98557.66
2022-10-21T10:44:38.943Z,98557.66
2022-10-21T10:47:17.703Z,98556.59
2022-10-21T10:49:45.598Z,98552.94
2022-10-21T10:52:13.725Z,98563.59
2022-10-21T10:54:43.302Z,98559.91
2022-10-21T10:57:34.338Z,98545.94
2022-10-21T11:00:22.179Z,98546.78
2022-10-21T11:03:05.391Z,98532.44
2022-10-21T11:05:48.832Z,98538.59
2022-10-21T11:08:18.299Z,98529.78
2022-10-21T11:10:50.731Z,98531.63
2022-10-21T11:13:21.620Z,98527.13
2022-10-21T11:16:24.895Z,98520.97
2022-10-21T11:19:20.649Z,98522.59
2022-10-21T11:21:52.995Z,98520.97
2022-10-21T11:24:37.439Z,98510.31
2022-10-21T11:27:29.561Z,98505.00
2022-10-21T11:30:12.247Z,98500.47
2022-10-21T11:32:53.795Z,98496.78
2022-10-21T11:35:27.380Z,98495.97
2022-10-21T11:38:00.558Z,98491.47
2022-10-21T11:40:48.424Z,98485.31
2022-10-21T11:43:18.887Z,98480.00
2022-10-21T11:45:58.273Z,98471.00
2022-10-21T11:48:41.453Z,98474.47
2022-10-21T11:51:21.068Z,98464.00
2022-10-21T11:55:08.320Z,98452.34
2022-10-21T11:58:13.162Z,98458.28
2022-10-21T12:01:09.280Z,98452.13
2022-10-21T12:03:47.814Z,98448.47
2022-10-21T12:06:42.340Z,98443.75
2022-10-21T12:09:26.717Z,98441.91
2022-10-21T12:12:11.801Z,98435.75
2022-10-21T12:14:49.509Z,98432.25
2022-10-21T12:17:23.186Z,98430.63
2022-10-21T12:20:06.372Z,98437.59
2022-10-21T12:22:35.227Z,98436.56
2022-10-21T12:25:27.946Z,98424.25
2022-10-21T12:28:20.960Z,98407.47
2022-10-21T12:31:22.813Z,98402.94
2022-10-21T12:33:50.829Z,98392.28
2022-10-21T12:36:24.717Z,98393.94
2022-10-21T12:38:59.170Z,98392.28
2022-10-21T12:41:34.112Z,98402.94
2022-10-21T12:44:01.568Z,98406.22
2022-10-21T12:46:42.469Z,98398.25
2022-10-21T12:49:22.043Z,98398.25
2022-10-21T12:52:05.502Z,98395.59
2022-10-21T12:54:57.781Z,98395.59
2022-10-21T12:57:33.352Z,98386.78
2022-10-21T13:00:27.038Z,98398.25
2022-10-21T13:03:11.960Z,98413.25
2022-10-21T13:05:39.427Z,98407.94
2022-10-21T13:08:28.443Z,98390.25
2022-10-21T13:11:05.516Z,98380.44
2022-10-21T13:13:39.394Z,98374.28
2022-10-21T13:16:28.183Z,98375.97
2022-10-21T13:19:17.710Z,98377.59
2022-10-21T13:21:49.531Z,98375.97
2022-10-21T13:24:26.597Z,98382.91
2022-10-21T13:26:59.914Z,98392.75
2022-10-21T13:29:36.735Z,98388.25
2022-10-21T13:32:21.152Z,98395.22
2022-10-21T13:34:49.047Z,98393.56
2022-10-21T13:37:31.410Z,98391.53
2022-10-21T13:40:02.993Z,98395.84
2022-10-21T13:42:39.637Z,98395.00
2022-10-21T13:45:34.845Z,98392.34
2022-10-21T13:48:34.371Z,98390.53
2022-10-21T13:51:18.480Z,98377.19
2022-10-21T13:53:46.673Z,98382.53
2022-10-21T13:56:24.611Z,98387.84
2022-10-21T13:58:52.426Z,98387.84
2022-10-21T14:01:25.475Z,98387.84
2022-10-21T14:03:54.919Z,98383.53
2022-10-21T14:06:32.448Z,98387.00
2022-10-21T14:09:04.144Z,98382.53
2022-10-21T14:11:45.166Z,98393.19
2022-10-21T14:14:16.245Z,98391.13
2022-10-21T14:16:51.114Z,98395.63
2022-10-21T14:19:22.569Z,98391.13
2022-10-21T14:21:53.518Z,98401.81
2022-10-21T14:24:31.539Z,98401.81
2022-10-21T14:27:01.078Z,98394.81
2022-10-21T14:29:33.079Z,98405.47
2022-10-21T14:32:01.747Z,98405.09
2022-10-21T14:34:35.171Z,98403.44
2022-10-21T14:37:12.168Z,98399.13
2022-10-21T14:39:39.899Z,98393.59
2022-10-21T14:42:20.490Z,98391.97
2022-10-21T14:44:51.685Z,98394.81
2022-10-21T14:47:26.012Z,98399.13
2022-10-21T14:49:59.713Z,98407.13
2022-10-21T14:52:34.565Z,98405.91
2022-10-21T14:55:08.213Z,98400.75
2022-10-21T14:57:44.932Z,98399.75
2022-10-21T15:00:33.281Z,98404.03
2022-10-21T15:03:01.950Z,98410.19
2022-10-21T15:05:29.472Z,98405.09
2022-10-21T15:08:22.605Z,98401.38
2022-10-21T15:11:05.476Z,98406.72
2022-10-21T15:13:33.299Z,98405.09
2022-10-21T15:16:03.887Z,98405.09
2022-10-21T15:18:40.136Z,98406.72
2022-10-21T15:21:12.397Z,98402.41
2022-10-21T15:23:41.631Z,98399.75
2022-10-21T15:26:26.189Z,98397.09
2022-10-21T15:28:54.757Z,98401.38
2022-10-21T15:31:24.761Z,98408.56
2022-10-21T15:33:54.232Z,98417.38
2022-10-21T15:36:23.763Z,98416.56
2022-10-21T15:38:51.717Z,98422.69
2022-10-21T15:41:25.443Z,98422.88
2022-10-21T15:44:19.210Z,98421.06
2022-10-21T15:46:47.359Z,98418.41
2022-10-21T15:49:21.388Z,98426.41
2022-10-21T15:51:50.096Z,98431.72
2022-10-21T15:54:20.150Z,98436.03
2022-10-21T15:56:51.327Z,98433.34
2022-10-21T15:59:20.317Z,98426.41
2022-10-21T16:01:48.833Z,98430.69
2022-10-21T16:04:16.868Z,98429.06
2022-10-21T16:06:48.936Z,98427.22
2022-10-21T16:09:23.890Z,98433.34
2022-10-21T16:11:59.376Z,98439.50
2022-10-21T16:14:30.732Z,98428.03
2022-10-21T16:16:59.375Z,98433.34
2022-10-21T16:19:28.592Z,98430.88
2022-10-21T16:21:56.529Z,98429.06
2022-10-21T16:24:24.346Z,98428.03
2022-10-21T16:26:51.817Z,98435.00
2022-10-21T16:29:22.587Z,98434.16
2022-10-21T16:31:51.207Z,98433.34
2022-10-21T16:34:19.608Z,98444.00
2022-10-21T16:36:47.128Z,98441.34
2022-10-21T16:39:17.627Z,98434.16
2022-10-21T16:41:45.238Z,98437.69
2022-10-21T16:44:13.198Z,98434.16
2022-10-21T16:46:53.787Z,98436.03
2022-10-21T16:49:26.697Z,98441.34
2022-10-21T16:51:55.140Z,98452.81
2022-10-21T16:54:23.724Z,98458.16
2022-10-21T16:56:54.692Z,98453.84
2022-10-21T16:59:23.725Z,98451.00
2022-10-21T17:01:54.045Z,98446.50
2022-10-21T17:04:21.814Z,98451.00
2022-10-21T17:06:49.469Z,98452.63
2022-10-21T17:09:17.818Z,98451.00
2022-10-21T17:11:46.227Z,98450.16
2022-10-21T17:14:18.057Z,98452.00
2022-10-21T17:16:46.149Z,98460.00
2022-10-21T17:19:14.793Z,98460.00
2022-10-21T17:21:43.383Z,98458.38
2022-10-21T17:24:18.244Z,98453.03
2022-10-21T17:26:47.586Z,98455.72
2022-10-21T17:29:15.632Z,98460.00
2022-10-21T17:31:43.694Z,98454.66
2022-10-21T17:34:32.355Z,98459.19
2022-10-21T17:37:00.471Z,98459.00
2022-10-21T17:39:28.209Z,98454.66
2022-10-21T17:41:58.375Z,98451.00
2022-10-21T17:44:28.467Z,98449.16
2022-10-21T17:46:55.990Z,98452.63
2022-10-21T17:49:26.187Z,98444.44
2022-10-21T17:51:53.767Z,98438.28
2022-10-21T17:54:26.097Z,98440.75
2022-10-21T17:56:56.773Z,98434.41
2022-10-21T17:59:26.721Z,98436.22
2022-10-21T18:01:56.236Z,98425.56
2022-10-21T18:04:23.949Z,98421.91
2022-10-21T18:06:51.609Z,98429.69
2022-10-21T18:09:19.412Z,98426.81
2022-10-21T18:11:46.930Z,98416.16
2022-10-21T18:14:14.717Z,98407.16
2022-10-21T18:16:42.247Z,98403.44
2022-10-21T18:19:10.143Z,98399.78
2022-10-21T18:21:37.760Z,98401.41
2022-10-21T18:24:09.883Z,98396.06
2022-10-21T18:26:40.489Z,98399.38
2022-10-21T18:29:08.342Z,98396.69
2022-10-21T18:31:37.923Z,98392.00
2022-10-21T18:34:09.072Z,98386.66
2022-10-21T18:36:39.265Z,98382.97
2022-10-21T18:39:10.460Z,98380.09
2022-10-21T18:41:42.750Z,98380.91
2022-10-21T18:44:14.304Z,98378.25
2022-10-21T18:46:43.137Z,98380.91
2022-10-21T18:49:14.478Z,98377.25
2022-10-21T18:51:42.397Z,98378.84
2022-10-21T18:54:13.595Z,98378.84
2022-10-21T18:56:41.388Z,98375.19
2022-10-21T18:59:10.066Z,98368.81
2022-10-21T19:01:37.786Z,98368.81
2022-10-21T19:04:05.648Z,98372.31
2022-10-21T19:06:36.040Z,98365.16
2022-10-21T19:09:29.663Z,98362.47
2022-10-21T19:12:01.406Z,98358.16
2022-10-21T19:14:28.920Z,98357.16
2022-10-21T19:16:56.695Z,98358.78
2022-10-21T19:19:25.837Z,98358.78
2022-10-21T19:21:54.808Z,98366.78
2022-10-21T19:24:22.633Z,98357.16
2022-10-21T19:26:58.636Z,98368.63
2022-10-21T19:29:26.730Z,98369.44
2022-10-21T19:31:57.711Z,98361.44
2022-10-21T19:34:28.729Z,98356.09
2022-10-21T19:36:56.477Z,98348.13
2022-10-21T19:39:24.104Z,98354.28
2022-10-21T19:41:57.605Z,98343.63
2022-10-21T19:44:25.256Z,98353.44
2022-10-21T19:46:52.947Z,98348.97
2022-10-21T19:49:21.355Z,98355.09
2022-10-21T19:51:52.143Z,98355.09
2022-10-21T19:54:19.748Z,98344.44
2022-10-21T19:56:47.544Z,98344.44
2022-10-21T19:59:15.180Z,98357.53
2022-10-21T20:01:43.210Z,98361.06
2022-10-21T20:04:10.778Z,98372.53
2022-10-21T20:06:39.175Z,98370.66
2022-10-21T20:09:10.363Z,98372.34
2022-10-21T20:11:41.047Z,98367.00
2022-10-21T20:14:10.918Z,98368.63
2022-10-21T20:16:42.014Z,98365.97
2022-10-21T20:19:12.424Z,98364.09
2022-10-21T20:21:41.256Z,98353.44
2022-10-21T20:24:12.901Z,98353.44
2022-10-21T20:26:42.763Z,98354.28
2022-10-21T20:29:11.191Z,98352.44
2022-10-21T20:31:39.231Z,98357.97
2022-10-21T20:34:06.787Z,98358.78
2022-10-21T20:36:36.811Z,98375.63
2022-10-21T20:39:04.656Z,98371.91
2022-10-21T20:41:37.083Z,98377.25
2022-10-21T20:44:08.043Z,98378.28
2022-10-21T20:46:36.231Z,98377.25
2022-10-21T20:49:06.191Z,98382.56
2022-10-21T20:51:36.098Z,98375.63
2022-10-21T20:54:09.106Z,98384.44
2022-10-21T20:56:39.548Z,98382.56
2022-10-21T20:59:15.641Z,98384.44
2022-10-21T21:01:47.106Z,98380.94
2022-10-21T21:04:16.968Z,98370.28
2022-10-21T21:06:47.415Z,98361.25
2022-10-21T21:12:04.633Z,98367.38
2022-10-21T21:14:33.398Z,98369.44
2022-10-21T21:17:01.563Z,98365.75
2022-10-21T21:19:29.053Z,98359.63
2022-10-21T21:21:57.849Z,98359.63
2022-10-21T21:24:25.677Z,98344.63
2022-10-21T21:26:53.789Z,98352.63
2022-10-21T21:29:21.280Z,98341.97
2022-10-21T21:31:49.412Z,98347.31
2022-10-21T21:34:18.430Z,98341.16
2022-10-21T21:36:46.116Z,98341.97
2022-10-21T21:41:42.855Z,98343.00
2022-10-21T21:44:10.311Z,98333.34
2022-10-21T21:46:38.051Z,98333.34
2022-10-21T21:49:06.434Z,98340.34
2022-10-21T21:51:36.583Z,98338.69
2022-10-21T21:54:07.716Z,98345.66
2022-10-21T21:56:35.635Z,98344.84
2022-10-21T21:59:03.541Z,98344.00
2022-10-21T22:01:31.478Z,98347.50
2022-10-21T22:04:00.392Z,98360.00
2022-10-21T22:06:31.706Z,98360.81
2022-10-21T22:09:00.359Z,98354.69
2022-10-21T22:11:31.203Z,98360.00
2022-10-21T22:13:59.874Z,98342.38
2022-10-21T22:16:30.405Z,98340.72
2022-10-21T22:18:59.971Z,98342.38
2022-10-21T22:21:29.430Z,98352.22
2022-10-21T22:23:56.922Z,98348.72
2022-10-21T22:26:26.853Z,98340.72
2022-10-21T22:28:54.976Z,98327.63
2022-10-21T22:31:28.944Z,98334.78
2022-10-21T22:34:04.282Z,98332.13
2022-10-21T22:36:34.320Z,98337.44
2022-10-21T22:39:01.994Z,98342.78
2022-10-21T22:41:29.659Z,98324.13
2022-10-21T22:43:57.949Z,98321.47
2022-10-21T22:46:33.918Z,98311.84
2022-10-21T22:49:05.585Z,98308.34
2022-10-21T22:51:33.761Z,98310.19
2022-10-21T22:54:01.621Z,98307.50
2022-10-21T22:56:29.814Z,98316.34
2022-10-21T22:58:57.625Z,98319.84
2022-10-21T23:01:30.672Z,98319.22
2022-10-21T23:04:02.762Z,98320.84
2022-10-21T23:06:32.320Z,98310.19
2022-10-21T23:09:01.090Z,98304.03
2022-10-21T23:11:29.686Z,98303.22
2022-10-21T23:14:03.432Z,98300.56
2022-10-21T23:16:37.128Z,98302.19
2022-10-21T23:19:08.779Z,98300.56
2022-10-21T23:21:37.416Z,98308.56
2022-10-21T23:24:05.692Z,98308.75
2022-10-21T23:26:33.401Z,98320.22
2022-10-21T23:29:01.120Z,98317.56
2022-10-21T23:31:28.787Z,98299.13
2022-10-21T23:33:56.341Z,98305.28
2022-10-21T23:36:24.139Z,98307.94
2022-10-21T23:38:54.778Z,98318.59
2022-10-21T23:41:23.061Z,98316.94
2022-10-21T23:43:50.480Z,98311.59
2022-10-21T23:46:18.596Z,98316.94
2022-10-21T23:48:46.759Z,98322.28
2022-10-21T23:51:14.726Z,98315.94
2022-10-21T23:53:42.187Z,98316.94
2022-10-21T23:56:10.309Z,98315.31
2022-10-21T23:58:37.804Z,98308.94
